Time;durP1;ratioP1;P1;durP2;ratioP2;P2;SDS_P1;SDS_P2;PMS_P1;PMS_P2;Temp;Humidity;BMP_temperature;BMP_pressure;BME280_temperature;BME280_humidity;BME280_pressure;Samples;Min_cycle;Max_cycle;Signal;HPM_P1;HPM_P2
2023/02/04 00:02:00;;;;;;;0.90;0.80;;;4.60;97.30;;;;;;5013152;28;20742;-87
2023/02/04 00:04:26;;;;;;;1.80;1.63;;;4.60;97.30;;;;;;5013918;28;20168;-88
2023/02/04 00:06:51;;;;;;;1.00;0.90;;;4.50;97.30;;;;;;5014659;28;20812;-88
2023/02/04 00:09:17;;;;;;;1.10;1.00;;;4.50;97.30;;;;;;5014865;28;20199;-87
2023/02/04 00:11:43;;;;;;;0.90;0.80;;;4.50;97.30;;;;;;5014776;28;20665;-88
2023/02/04 00:14:09;;;;;;;0.90;0.80;;;4.40;97.30;;;;;;5014660;28;20724;-87
2023/02/04 00:16:35;;;;;;;0.90;0.80;;;4.40;97.30;;;;;;5031500;28;20502;-87
2023/02/04 00:19:00;;;;;;;1.00;0.90;;;4.30;97.30;;;;;;5014853;28;20423;-88
2023/02/04 00:21:26;;;;;;;1.00;0.90;;;4.30;97.30;;;;;;5015375;28;20193;-88
2023/02/04 00:23:51;;;;;;;1.17;1.07;;;4.30;97.30;;;;;;5014485;28;20180;-88
2023/02/04 00:26:17;;;;;;;1.00;0.90;;;4.30;97.30;;;;;;5015664;28;20587;-88
2023/02/04 00:28:42;;;;;;;1.20;1.10;;;4.20;97.30;;;;;;5015636;28;20208;-87
2023/02/04 00:31:08;;;;;;;0.90;0.80;;;4.20;97.30;;;;;;5015170;28;20190;-88
2023/02/04 00:33:33;;;;;;;1.00;0.90;;;4.20;97.30;;;;;;5007953;28;20260;-88
2023/02/04 00:35:59;;;;;;;1.00;0.90;;;4.20;97.30;;;;;;5016022;28;20219;-88
2023/02/04 00:38:24;;;;;;;0.90;0.80;;;4.20;97.30;;;;;;5008234;28;20191;-88
2023/02/04 00:40:50;;;;;;;1.00;0.90;;;4.10;97.30;;;;;;5008905;28;20221;-88
2023/02/04 00:43:15;;;;;;;0.90;0.80;;;4.10;97.30;;;;;;5007115;28;20188;-88
2023/02/04 00:45:40;;;;;;;1.20;1.10;;;4.10;97.30;;;;;;5002499;28;20695;-88
2023/02/04 00:48:06;;;;;;;1.40;1.30;;;4.00;97.30;;;;;;5030531;28;20239;-88
2023/02/04 00:50:33;;;;;;;4.87;1.77;;;4.00;97.30;;;;;;4998675;28;20189;-88
2023/02/04 00:53:00;;;;;;;1.83;1.73;;;4.00;97.30;;;;;;5001311;28;20727;-87
2023/02/04 00:55:26;;;;;;;1.10;1.00;;;4.00;97.30;;;;;;4999034;28;20498;-88
2023/02/04 00:57:52;;;;;;;1.00;0.90;;;4.00;97.30;;;;;;5025148;28;20422;-88
2023/02/04 01:00:17;;;;;;;0.93;0.83;;;4.00;97.30;;;;;;4999840;28;20280;-88
2023/02/04 01:02:43;;;;;;;0.93;0.83;;;3.90;97.30;;;;;;5006242;28;20647;-87
2023/02/04 01:05:09;;;;;;;0.90;0.80;;;3.90;97.30;;;;;;5003540;28;20207;-88
2023/02/04 01:07:34;;;;;;;1.00;0.90;;;3.90;97.30;;;;;;5007756;28;20246;-88
2023/02/04 01:10:00;;;;;;;1.00;0.90;;;3.90;97.30;;;;;;5026878;28;20414;-88
2023/02/04 01:12:26;;;;;;;1.10;1.00;;;3.80;97.30;;;;;;5009255;28;20180;-88
2023/02/04 01:14:52;;;;;;;0.90;0.80;;;3.80;97.30;;;;;;5010276;28;20197;-89
2023/02/04 01:17:18;;;;;;;1.00;0.90;;;3.80;97.30;;;;;;5011797;28;20420;-89
2023/02/04 01:19:44;;;;;;;0.90;0.80;;;3.80;97.30;;;;;;5006455;28;20515;-88
2023/02/04 01:22:10;;;;;;;1.00;0.90;;;3.70;97.30;;;;;;4992959;28;20457;-89
2023/02/04 01:24:35;;;;;;;1.00;0.90;;;3.70;97.30;;;;;;5001539;28;20213;-88
2023/02/04 01:27:01;;;;;;;1.40;1.30;;;3.70;97.30;;;;;;5002637;28;20662;-87
2023/02/04 01:29:27;;;;;;;1.00;0.90;;;3.60;97.30;;;;;;5009749;28;20177;-88
2023/02/04 01:31:52;;;;;;;1.20;1.10;;;3.50;97.30;;;;;;5000645;28;20420;-88
2023/02/04 01:34:17;;;;;;;1.00;0.90;;;3.50;97.30;;;;;;5009572;28;20734;-88
2023/02/04 01:36:43;;;;;;;0.90;0.80;;;3.40;97.30;;;;;;5007698;28;20183;-88
2023/02/04 01:39:08;;;;;;;1.00;0.90;;;3.40;97.30;;;;;;5011460;28;20192;-88
2023/02/04 01:41:34;;;;;;;1.00;0.90;;;3.40;97.30;;;;;;5015262;28;20226;-88
2023/02/04 01:43:59;;;;;;;0.90;0.80;;;3.40;97.30;;;;;;5037648;28;20189;-88
2023/02/04 01:46:25;;;;;;;0.80;0.70;;;3.40;97.30;;;;;;5036444;28;20689;-88
2023/02/04 01:48:51;;;;;;;1.13;1.03;;;3.30;97.30;;;;;;5019305;28;20200;-88
2023/02/04 01:51:27;;;;;;;1.10;1.00;;;3.30;97.30;;;;;;5020370;28;20214;-88
2023/02/04 01:53:54;;;;;;;1.30;1.20;;;3.20;97.30;;;;;;5020158;28;20190;-89
2023/02/04 01:56:22;;;;;;;0.90;0.80;;;3.20;97.30;;;;;;5019381;28;20451;-89
2023/02/04 01:58:48;;;;;;;1.15;1.05;;;3.10;97.30;;;;;;5021802;28;20430;-89
2023/02/04 02:01:39;;;;;;;0.97;0.87;;;3.10;97.30;;;;;;5019869;28;20932;-88
2023/02/04 02:04:05;;;;;;;1.40;1.30;;;3.10;97.30;;;;;;5037156;28;20280;-90
2023/02/04 02:06:31;;;;;;;1.33;1.23;;;3.10;97.30;;;;;;5005662;28;20891;-89
2023/02/04 02:08:57;;;;;;;1.00;0.90;;;3.10;97.30;;;;;;5013565;28;20908;-89
2023/02/04 02:11:24;;;;;;;0.97;0.87;;;3.10;97.30;;;;;;5029429;28;20212;-88
2023/02/04 02:13:49;;;;;;;1.10;1.00;;;3.10;97.30;;;;;;5021311;28;20459;-88
2023/02/04 02:16:16;;;;;;;1.07;0.97;;;3.10;97.30;;;;;;5038257;28;20953;-89
2023/02/04 02:18:41;;;;;;;1.00;0.90;;;3.10;97.30;;;;;;5021037;28;20180;-89
2023/02/04 02:21:10;;;;;;;1.00;0.90;;;3.10;97.30;;;;;;5020589;28;20442;-86
2023/02/04 02:23:59;;;;;;;1.10;1.00;;;3.10;97.30;;;;;;5020864;28;20184;-88
2023/02/04 02:26:26;;;;;;;1.87;1.10;;;3.10;97.30;;;;;;5020192;28;20546;-88
2023/02/04 02:28:52;;;;;;;0.97;0.87;;;3.10;97.30;;;;;;5020173;28;20484;-88
2023/02/04 02:31:20;;;;;;;1.23;1.13;;;3.10;97.30;;;;;;5019571;28;20418;-88
2023/02/04 02:33:46;;;;;;;0.90;0.80;;;3.10;97.30;;;;;;5019691;28;20505;-88
2023/02/04 02:36:12;;;;;;;0.93;0.83;;;3.10;97.30;;;;;;5020004;28;20443;-88
2023/02/04 02:38:38;;;;;;;1.00;0.90;;;3.20;97.30;;;;;;5029916;28;20848;-88
2023/02/04 02:41:05;;;;;;;1.17;1.10;;;3.20;97.30;;;;;;5015735;28;20275;-86
2023/02/04 02:43:31;;;;;;;4.83;1.50;;;3.20;97.30;;;;;;5016592;28;20425;-88
2023/02/04 02:45:59;;;;;;;1.63;1.53;;;3.20;97.30;;;;;;5019456;28;20535;-88
2023/02/04 02:48:25;;;;;;;1.07;0.97;;;3.20;97.30;;;;;;5018410;28;20458;-88
2023/02/04 02:50:50;;;;;;;1.00;0.90;;;3.20;97.30;;;;;;5019236;28;20419;-88
2023/02/04 02:53:18;;;;;;;1.40;1.30;;;3.20;97.30;;;;;;5019054;28;20183;-88
2023/02/04 02:55:44;;;;;;;1.20;1.10;;;3.20;97.30;;;;;;5018911;28;20201;-88
2023/02/04 02:58:39;;;;;;;1.40;1.30;;;3.20;97.30;;;;;;5018711;28;20426;-88
2023/02/04 03:01:07;;;;;;;1.00;0.90;;;3.30;97.30;;;;;;5006212;28;20713;-88
2023/02/04 03:03:36;;;;;;;1.10;1.00;;;3.30;97.30;;;;;;5019372;28;20961;-87
2023/02/04 03:06:19;;;;;;;1.67;1.57;;;3.30;97.30;;;;;;5018208;28;20955;-89
2023/02/04 03:08:47;;;;;;;1.00;0.90;;;3.30;97.30;;;;;;5018890;28;20455;-88
2023/02/04 03:11:12;;;;;;;1.10;1.00;;;3.20;97.30;;;;;;5033248;28;20430;-88
2023/02/04 03:13:39;;;;;;;1.00;0.90;;;3.20;97.30;;;;;;5015397;28;20569;-87
2023/02/04 03:16:06;;;;;;;1.40;1.30;;;3.20;97.30;;;;;;5017193;28;20208;-86
2023/02/04 03:18:33;;;;;;;1.10;1.00;;;3.20;97.30;;;;;;5017384;28;20423;-88
2023/02/04 03:20:58;;;;;;;1.23;1.13;;;3.20;97.30;;;;;;5016940;28;20423;-88
2023/02/04 03:23:26;;;;;;;0.90;0.80;;;3.10;97.30;;;;;;5034647;28;20477;-88
2023/02/04 03:25:51;;;;;;;1.00;0.90;;;3.10;97.30;;;;;;5017300;28;20200;-88
2023/02/04 03:28:17;;;;;;;0.90;0.80;;;3.10;97.30;;;;;;5017410;28;20562;-87
2023/02/04 03:30:42;;;;;;;1.00;0.90;;;3.10;97.30;;;;;;5016515;28;20181;-88
2023/02/04 03:33:08;;;;;;;0.90;0.80;;;3.10;97.30;;;;;;5016267;28;20187;-88
2023/02/04 03:35:33;;;;;;;1.10;1.00;;;3.10;97.30;;;;;;5016760;28;20188;-88
2023/02/04 03:37:59;;;;;;;3.40;1.97;;;3.10;97.30;;;;;;5016196;28;20196;-89
2023/02/04 03:40:24;;;;;;;1.20;1.10;;;3.10;97.30;;;;;;5015187;28;20224;-87
2023/02/04 03:42:50;;;;;;;1.00;0.90;;;3.10;97.30;;;;;;5012167;28;20185;-88
2023/02/04 03:45:16;;;;;;;0.83;0.73;;;3.00;97.30;;;;;;5016785;28;20506;-88
2023/02/04 03:47:41;;;;;;;0.90;0.80;;;3.00;97.30;;;;;;5012927;28;20266;-88
2023/02/04 03:50:07;;;;;;;0.90;0.80;;;3.00;97.30;;;;;;5016178;28;20189;-87
2023/02/04 03:52:32;;;;;;;1.00;0.90;;;3.00;97.30;;;;;;5012436;28;20260;-87
2023/02/04 03:54:58;;;;;;;0.90;0.80;;;3.00;97.30;;;;;;5007470;28;20556;-87
2023/02/04 03:57:23;;;;;;;1.00;0.90;;;3.00;97.30;;;;;;5012362;28;20191;-87
2023/02/04 03:59:49;;;;;;;1.07;0.97;;;3.00;97.30;;;;;;5012321;28;20185;-88
2023/02/04 04:02:14;;;;;;;1.10;1.00;;;3.00;97.30;;;;;;5011813;28;20176;-87
2023/02/04 04:04:39;;;;;;;1.57;1.50;;;3.00;97.30;;;;;;5012222;28;20727;-88
2023/02/04 04:07:05;;;;;;;1.50;1.40;;;3.00;97.30;;;;;;5015867;28;20234;-88
2023/02/04 04:09:31;;;;;;;1.00;0.90;;;3.00;97.30;;;;;;5015521;28;20183;-88
2023/02/04 04:11:56;;;;;;;1.00;0.90;;;3.00;97.30;;;;;;5015105;28;20419;-88
2023/02/04 04:14:22;;;;;;;0.90;0.80;;;3.00;97.30;;;;;;5015268;28;20226;-90
2023/02/04 04:16:47;;;;;;;0.90;0.80;;;3.00;97.30;;;;;;5031093;28;20183;-87
2023/02/04 04:19:13;;;;;;;1.50;1.40;;;3.00;97.30;;;;;;5012559;28;20730;-88
2023/02/04 04:21:38;;;;;;;1.10;1.00;;;2.90;97.30;;;;;;5013621;28;20173;-87
2023/02/04 04:24:04;;;;;;;1.53;1.43;;;2.80;97.30;;;;;;5013547;28;20430;-87
2023/02/04 04:26:29;;;;;;;1.00;0.90;;;2.80;97.30;;;;;;5019281;28;20207;-87
2023/02/04 04:28:55;;;;;;;0.93;0.83;;;2.70;97.30;;;;;;5022453;28;20212;-90
2023/02/04 04:31:20;;;;;;;1.23;1.13;;;2.70;97.30;;;;;;5025900;28;20262;-90
2023/02/04 04:33:46;;;;;;;1.00;0.90;;;2.60;97.30;;;;;;5034641;28;20184;-89
2023/02/04 04:36:11;;;;;;;1.00;0.90;;;2.60;97.30;;;;;;5016230;28;20192;-89
2023/02/04 04:38:37;;;;;;;1.57;1.47;;;2.50;97.30;;;;;;5015880;28;20695;-89
2023/02/04 04:41:02;;;;;;;1.30;1.20;;;2.50;97.30;;;;;;5015894;28;20220;-89
2023/02/04 04:43:28;;;;;;;1.17;1.07;;;2.50;97.30;;;;;;5015651;28;20907;-89
2023/02/04 04:45:53;;;;;;;1.73;1.63;;;2.40;97.30;;;;;;5016627;28;20592;-89
2023/02/04 04:48:20;;;;;;;3.57;1.47;;;2.40;97.30;;;;;;5017449;28;20275;-89
2023/02/04 04:50:45;;;;;;;1.10;1.00;;;2.40;97.30;;;;;;5034614;28;20168;-89
2023/02/04 04:53:11;;;;;;;1.00;0.90;;;2.30;97.30;;;;;;5033111;28;20421;-89
2023/02/04 04:55:37;;;;;;;1.10;1.00;;;2.30;97.30;;;;;;5017545;28;20196;-89
2023/02/04 04:58:03;;;;;;;0.90;0.80;;;2.20;97.30;;;;;;5055158;28;20180;-89
2023/02/04 05:00:29;;;;;;;1.00;0.90;;;2.20;97.30;;;;;;5025347;28;20439;-89
2023/02/04 05:02:54;;;;;;;1.00;0.90;;;2.20;97.30;;;;;;5015733;28;20411;-90
2023/02/04 05:05:20;;;;;;;0.90;0.80;;;2.20;97.30;;;;;;5015462;28;20226;-89
2023/02/04 05:07:45;;;;;;;0.90;0.80;;;2.20;97.30;;;;;;5015315;28;20200;-89
2023/02/04 05:10:11;;;;;;;0.97;0.87;;;2.20;97.30;;;;;;5015808;28;20172;-89
2023/02/04 05:12:36;;;;;;;1.30;1.20;;;2.20;97.30;;;;;;5033219;28;20654;-89
2023/02/04 05:15:02;;;;;;;2.70;2.50;;;2.20;97.30;;;;;;5016379;28;20204;-89
2023/02/04 05:17:27;;;;;;;1.00;0.90;;;2.20;97.30;;;;;;5016314;28;20609;-89
2023/02/04 05:19:53;;;;;;;1.13;1.03;;;2.30;97.30;;;;;;5017927;28;20181;-89
2023/02/04 05:22:18;;;;;;;1.00;0.90;;;2.30;97.30;;;;;;5016452;28;20177;-89
2023/02/04 05:24:44;;;;;;;1.00;0.90;;;2.30;97.30;;;;;;5032340;28;20576;-89
2023/02/04 05:27:09;;;;;;;1.00;0.90;;;2.30;97.30;;;;;;5015428;28;20180;-89
2023/02/04 05:29:35;;;;;;;1.17;1.07;;;2.30;97.30;;;;;;5015411;28;20196;-89
2023/02/04 05:32:00;;;;;;;1.50;1.40;;;2.30;97.30;;;;;;5015766;28;20238;-89
2023/02/04 05:34:26;;;;;;;1.20;1.10;;;2.40;97.30;;;;;;5016599;28;20180;-89
2023/02/04 05:36:51;;;;;;;1.00;0.90;;;2.40;97.30;;;;;;5014357;28;20176;-89
2023/02/04 05:39:17;;;;;;;1.00;0.90;;;2.40;97.30;;;;;;5015719;28;20186;-89
2023/02/04 05:41:42;;;;;;;1.00;0.90;;;2.40;97.30;;;;;;5016338;28;20710;-88
2023/02/04 05:44:08;;;;;;;1.10;1.00;;;2.40;97.30;;;;;;5016099;28;20183;-89
2023/02/04 05:46:33;;;;;;;1.03;0.93;;;2.40;97.30;;;;;;5015128;28;20200;-89
2023/02/04 05:48:59;;;;;;;1.40;1.03;;;2.40;97.30;;;;;;5015111;28;20262;-89
2023/02/04 05:51:24;;;;;;;1.20;1.13;;;2.50;97.30;;;;;;5015041;28;20259;-89
2023/02/04 05:53:50;;;;;;;0.90;0.80;;;2.50;97.30;;;;;;5014504;28;20574;-89
2023/02/04 05:56:15;;;;;;;1.03;0.93;;;2.50;97.30;;;;;;5013176;28;20258;-89
2023/02/04 05:58:41;;;;;;;1.00;0.90;;;2.50;97.30;;;;;;5013676;28;20176;-89
2023/02/04 06:01:06;;;;;;;2.03;1.30;;;2.40;97.30;;;;;;5014597;28;20648;-89
2023/02/04 06:03:32;;;;;;;1.30;1.20;;;2.40;97.30;;;;;;5014549;28;20219;-88
2023/02/04 06:05:57;;;;;;;0.90;0.80;;;2.40;97.30;;;;;;5014109;28;20206;-89
2023/02/04 06:08:23;;;;;;;0.97;0.87;;;2.30;97.30;;;;;;5033418;28;20714;-89
2023/02/04 06:10:49;;;;;;;1.10;1.00;;;2.20;97.30;;;;;;5014715;28;20181;-88
2023/02/04 06:13:15;;;;;;;1.20;1.10;;;2.20;97.30;;;;;;5014674;28;20184;-88
2023/02/04 06:15:40;;;;;;;0.97;0.87;;;2.20;97.30;;;;;;5014500;28;20200;-89
2023/02/04 06:18:06;;;;;;;1.00;0.90;;;2.10;97.30;;;;;;5014954;28;20188;-89
2023/02/04 06:20:31;;;;;;;1.00;0.90;;;2.10;97.30;;;;;;5014035;28;20275;-89
2023/02/04 06:22:57;;;;;;;1.00;0.90;;;2.00;97.30;;;;;;5013912;28;20191;-89
2023/02/04 06:25:23;;;;;;;0.97;0.90;;;2.00;97.30;;;;;;5033520;28;20211;-89
2023/02/04 06:27:48;;;;;;;1.00;0.90;;;1.90;97.30;;;;;;5014454;28;20201;-89
2023/02/04 06:30:15;;;;;;;1.00;0.90;;;1.90;97.30;;;;;;5032844;28;20188;-89
2023/02/04 06:32:41;;;;;;;0.90;0.80;;;1.90;97.30;;;;;;5032502;28;20255;-89
2023/02/04 06:35:07;;;;;;;1.20;1.10;;;1.90;97.30;;;;;;5013824;28;20479;-89
2023/02/04 06:37:33;;;;;;;1.00;0.90;;;1.80;97.30;;;;;;5013973;28;20233;-89
2023/02/04 06:39:58;;;;;;;1.23;1.13;;;1.80;97.30;;;;;;5012978;28;20451;-89
2023/02/04 06:42:24;;;;;;;1.00;0.90;;;1.80;97.30;;;;;;5024349;28;20231;-89
2023/02/04 06:44:51;;;;;;;1.00;0.90;;;1.70;97.30;;;;;;5001747;28;20203;-88
2023/02/04 06:47:16;;;;;;;1.00;0.90;;;1.70;97.30;;;;;;5022851;28;20427;-88
2023/02/04 06:49:42;;;;;;;0.90;0.80;;;1.70;97.30;;;;;;5006676;28;20431;-89
2023/02/04 06:52:08;;;;;;;0.90;0.80;;;1.70;97.30;;;;;;4994028;28;20188;-89
2023/02/04 06:54:34;;;;;;;1.00;0.90;;;1.60;97.30;;;;;;5011341;28;20181;-89
2023/02/04 06:57:05;;;;;;;1.23;1.20;;;1.60;97.30;;;;;;4994709;28;20484;-88
2023/02/04 06:59:35;;;;;;;0.90;0.80;;;1.60;97.30;;;;;;5027630;28;20606;-89
2023/02/04 07:02:00;;;;;;;1.10;1.00;;;1.60;97.30;;;;;;5002075;28;20431;-89
2023/02/04 07:04:26;;;;;;;1.10;1.00;;;1.60;97.30;;;;;;5001754;28;20611;-88
2023/02/04 07:06:51;;;;;;;0.90;0.80;;;1.60;97.30;;;;;;4995021;28;20220;-89
2023/02/04 07:09:17;;;;;;;1.27;1.17;;;1.50;97.30;;;;;;5020222;28;20241;-87
2023/02/04 07:11:42;;;;;;;1.00;0.90;;;1.50;97.30;;;;;;4991343;28;20190;-89
2023/02/04 07:14:09;;;;;;;1.20;1.10;;;1.50;97.30;;;;;;4989607;28;20181;-88
2023/02/04 07:16:35;;;;;;;1.00;0.90;;;1.50;97.30;;;;;;5013635;28;20223;-88
2023/02/04 07:19:00;;;;;;;1.20;1.10;;;1.50;97.30;;;;;;5004768;28;20611;-88
2023/02/04 07:21:26;;;;;;;3.23;1.70;;;1.50;97.30;;;;;;4993911;28;20189;-88
2023/02/04 07:23:51;;;;;;;1.10;1.00;;;1.50;97.30;;;;;;4999500;28;20185;-88
2023/02/04 07:26:17;;;;;;;13.80;1.30;;;1.50;97.30;;;;;;4992998;28;20619;-88
2023/02/04 07:28:43;;;;;;;1.30;1.20;;;1.50;97.30;;;;;;5004431;28;20223;-88
2023/02/04 07:31:09;;;;;;;1.10;1.00;;;1.50;97.30;;;;;;5003841;28;20212;-87
2023/02/04 07:33:34;;;;;;;1.10;1.00;;;1.50;97.30;;;;;;4997988;28;20502;-88
2023/02/04 07:36:00;;;;;;;1.20;1.13;;;1.50;97.30;;;;;;5000459;28;20794;-88
2023/02/04 07:38:25;;;;;;;1.17;1.00;;;1.60;97.30;;;;;;4994926;28;20552;-88
2023/02/04 07:40:51;;;;;;;1.20;1.10;;;1.70;97.30;;;;;;5008828;28;20286;-88
2023/02/04 07:43:16;;;;;;;1.10;1.00;;;1.70;97.30;;;;;;5012022;28;20180;-89
2023/02/04 07:45:42;;;;;;;1.83;1.60;;;1.70;97.30;;;;;;5014237;28;20204;-88
2023/02/04 07:48:07;;;;;;;1.10;1.00;;;1.80;97.30;;;;;;5014603;28;20227;-87
2023/02/04 07:50:32;;;;;;;1.10;1.00;;;1.80;97.30;;;;;;5013897;28;20271;-87
2023/02/04 07:52:58;;;;;;;1.00;0.90;;;1.90;97.30;;;;;;5015780;28;20473;-87
2023/02/04 07:55:24;;;;;;;2.70;2.50;;;1.90;97.30;;;;;;5015026;28;20196;-87
2023/02/04 07:57:49;;;;;;;1.00;0.90;;;2.00;97.30;;;;;;5015393;28;20181;-87
2023/02/04 08:00:17;;;;;;;1.23;1.13;;;2.00;97.30;;;;;;5016776;28;20204;-88
2023/02/04 08:02:42;;;;;;;1.27;1.17;;;2.00;97.30;;;;;;5019824;28;20258;-89
2023/02/04 08:05:08;;;;;;;4.10;2.63;;;2.10;97.30;;;;;;5018224;28;20503;-89
2023/02/04 08:07:34;;;;;;;1.00;0.90;;;2.10;97.30;;;;;;5018548;28;20204;-89
2023/02/04 08:09:59;;;;;;;1.00;0.90;;;2.10;97.30;;;;;;5019095;28;20420;-89
2023/02/04 08:12:25;;;;;;;1.00;0.90;;;2.20;97.30;;;;;;5019159;28;20612;-88
2023/02/04 08:14:50;;;;;;;0.90;0.80;;;2.20;97.30;;;;;;5019415;28;20582;-87
2023/02/04 08:17:16;;;;;;;0.90;0.80;;;2.30;97.30;;;;;;5037930;28;20181;-88
2023/02/04 08:19:41;;;;;;;1.70;1.30;;;2.40;97.30;;;;;;5036902;28;20192;-87
2023/02/04 08:22:07;;;;;;;1.00;0.90;;;2.50;97.30;;;;;;5019648;28;20191;-88
2023/02/04 08:24:32;;;;;;;1.33;1.23;;;2.60;97.30;;;;;;5019573;28;20176;-88
2023/02/04 08:26:58;;;;;;;3.53;1.60;;;2.70;97.30;;;;;;5016943;28;20177;-87
2023/02/04 08:29:24;;;;;;;1.00;0.90;;;2.80;97.30;;;;;;5033754;28;20244;-87
2023/02/04 08:31:50;;;;;;;2.27;2.07;;;2.90;97.30;;;;;;5020128;28;20225;-88
2023/02/04 08:34:16;;;;;;;0.90;0.80;;;2.90;97.30;;;;;;5018692;28;20424;-88
2023/02/04 08:36:43;;;;;;;1.00;0.90;;;2.90;97.30;;;;;;5019257;28;20423;-88
2023/02/04 08:39:09;;;;;;;1.00;0.90;;;3.00;97.30;;;;;;5021572;28;20177;-88
2023/02/04 08:41:34;;;;;;;1.37;1.27;;;3.00;97.30;;;;;;5018865;28;20558;-88
2023/02/04 08:44:00;;;;;;;1.00;0.90;;;3.10;97.30;;;;;;5023088;28;20520;-87
2023/02/04 08:46:26;;;;;;;2.47;1.20;;;3.20;97.30;;;;;;5017825;28;20204;-87
2023/02/04 08:48:51;;;;;;;1.23;1.13;;;3.30;97.30;;;;;;5036678;28;20631;-88
2023/02/04 08:51:17;;;;;;;1.83;1.73;;;3.20;97.30;;;;;;5036120;28;20207;-88
2023/02/04 08:53:42;;;;;;;1.00;0.90;;;3.30;97.30;;;;;;5019852;28;20633;-88
2023/02/04 08:56:09;;;;;;;1.43;1.33;;;3.30;97.30;;;;;;5031700;28;20200;-87
2023/02/04 08:58:35;;;;;;;1.00;0.90;;;3.40;97.30;;;;;;5021872;28;20210;-88
2023/02/04 09:01:01;;;;;;;1.00;0.90;;;3.40;97.30;;;;;;5025421;28;20423;-87
2023/02/04 09:03:27;;;;;;;1.73;1.67;;;3.40;97.30;;;;;;5020682;28;20426;-88
2023/02/04 09:05:52;;;;;;;1.00;0.90;;;3.40;97.30;;;;;;5028914;28;20454;-88
2023/02/04 09:08:18;;;;;;;1.43;1.33;;;3.40;97.30;;;;;;5023022;28;20200;-88
2023/02/04 09:10:43;;;;;;;1.47;1.37;;;3.40;97.30;;;;;;5017326;28;20255;-87
2023/02/04 09:13:10;;;;;;;1.07;0.97;;;3.40;97.30;;;;;;5018066;28;20506;-88
2023/02/04 09:15:36;;;;;;;0.80;0.70;;;3.50;97.30;;;;;;5007750;28;20197;-87
2023/02/04 09:18:10;;;;;;;1.00;0.90;;;3.50;97.30;;;;;;5018832;28;20426;-88
2023/02/04 09:20:38;;;;;;;2.20;1.27;;;3.60;97.30;;;;;;5017760;28;20207;-87
2023/02/04 09:23:05;;;;;;;2.63;2.10;;;3.60;97.30;;;;;;5013288;28;20446;-88
2023/02/04 09:25:31;;;;;;;0.90;0.80;;;3.70;97.30;;;;;;5017984;28;20862;-87
2023/02/04 09:27:56;;;;;;;0.97;0.90;;;3.70;97.30;;;;;;5010256;28;20726;-87
2023/02/04 09:30:22;;;;;;;1.30;1.20;;;3.70;97.30;;;;;;5003958;28;20176;-87
2023/02/04 09:32:47;;;;;;;1.00;0.90;;;3.70;97.30;;;;;;5010804;28;20179;-87
2023/02/04 09:35:13;;;;;;;1.10;1.00;;;3.70;97.30;;;;;;5010659;28;20197;-88
2023/02/04 09:37:38;;;;;;;1.57;1.47;;;3.70;97.30;;;;;;5034641;28;20184;-88
2023/02/04 09:40:04;;;;;;;1.30;1.20;;;3.70;97.30;;;;;;5018394;28;20196;-88
2023/02/04 09:42:42;;;;;;;1.07;0.97;;;3.70;97.30;;;;;;5016148;28;20191;-87
2023/02/04 09:45:16;;;;;;;1.00;0.90;;;3.60;97.30;;;;;;5014199;28;20506;-87
2023/02/04 09:47:41;;;;;;;1.50;1.40;;;3.60;97.30;;;;;;5007289;28;20807;-87
2023/02/04 09:50:19;;;;;;;1.13;1.07;;;3.60;97.30;;;;;;5016433;28;20446;-88
2023/02/04 09:52:49;;;;;;;1.10;1.00;;;3.70;97.30;;;;;;5017801;28;20183;-88
2023/02/04 09:55:17;;;;;;;1.20;1.10;;;3.80;97.30;;;;;;5016859;28;20467;-88
2023/02/04 09:57:43;;;;;;;1.00;0.90;;;3.80;97.30;;;;;;5017206;28;20837;-87
2023/02/04 10:00:20;;;;;;;1.67;1.57;;;3.90;97.30;;;;;;5009697;28;20419;-88
2023/02/04 10:02:48;;;;;;;1.63;1.53;;;4.00;97.30;;;;;;5017542;28;20238;-88
2023/02/04 10:05:25;;;;;;;1.57;1.47;;;4.10;97.30;;;;;;5017170;28;20439;-88
2023/02/04 10:07:50;;;;;;;1.43;1.33;;;4.10;97.30;;;;;;5018151;28;20533;-88
2023/02/04 10:10:18;;;;;;;1.00;0.90;;;4.10;97.30;;;;;;5017729;28;20972;-88
2023/02/04 10:12:45;;;;;;;1.00;0.90;;;4.10;97.30;;;;;;5017014;28;20187;-87
2023/02/04 10:15:15;;;;;;;1.70;1.33;;;4.10;97.30;;;;;;5035145;28;20434;-88
2023/02/04 10:17:41;;;;;;;1.00;0.90;;;4.20;97.30;;;;;;5017476;28;20542;-87
2023/02/04 10:20:19;;;;;;;2.00;1.43;;;4.20;97.30;;;;;;5018429;28;20427;-87
2023/02/04 10:22:45;;;;;;;1.43;1.17;;;4.30;97.30;;;;;;5034293;28;20419;-87
2023/02/04 10:25:17;;;;;;;1.03;0.93;;;4.30;97.30;;;;;;5012500;28;20443;-87
2023/02/04 10:27:57;;;;;;;1.07;0.97;;;4.40;97.30;;;;;;5017390;28;20956;-87
2023/02/04 10:30:41;;;;;;;0.90;0.80;;;4.50;97.30;;;;;;5018512;28;20438;-87
2023/02/04 10:33:23;;;;;;;4.20;1.20;;;4.60;97.30;;;;;;5011005;28;20495;-88
2023/02/04 10:35:51;;;;;;;0.90;0.80;;;4.70;97.30;;;;;;5016689;28;20514;-88
2023/02/04 10:38:17;;;;;;;1.10;1.00;;;4.70;97.30;;;;;;5018254;28;20640;-88
2023/02/04 10:40:43;;;;;;;1.33;1.23;;;4.70;97.30;;;;;;5006316;28;20523;-87
2023/02/04 10:43:21;;;;;;;1.00;0.90;;;4.70;97.30;;;;;;5030848;28;20408;-88
2023/02/04 10:45:55;;;;;;;1.20;1.10;;;4.70;97.30;;;;;;5016614;28;20223;-88
2023/02/04 10:48:22;;;;;;;1.10;1.00;;;4.70;97.30;;;;;;5017513;28;20454;-88
2023/02/04 10:50:48;;;;;;;1.43;1.33;;;4.80;97.30;;;;;;5017622;28;20937;-88
2023/02/04 10:56:10;;;;;;;1.10;1.00;;;4.80;97.30;;;;;;5031395;28;20862;-86
2023/02/04 10:58:35;;;;;;;0.90;0.80;;;5.00;97.30;;;;;;5034333;28;20506;-87
2023/02/04 11:01:01;;;;;;;0.90;0.80;;;5.10;97.30;;;;;;5018613;28;20458;-87
2023/02/04 11:03:31;;;;;;;1.10;1.00;;;5.10;97.30;;;;;;5017759;28;20275;-87
2023/02/04 11:05:59;;;;;;;2.67;1.30;;;5.10;97.30;;;;;;5016482;28;20509;-87
2023/02/04 11:08:34;;;;;;;7.30;2.03;;;5.20;97.30;;;;;;5014015;28;20846;-88
2023/02/04 11:11:04;;;;;;;1.10;1.00;;;5.20;97.30;;;;;;5028485;28;20518;-88
2023/02/04 11:13:50;;;;;;;7.80;1.30;;;5.10;97.30;;;;;;5016633;28;20422;-88
2023/02/04 11:16:34;;;;;;;1.00;0.90;;;5.10;97.30;;;;;;5012379;28;20470;-88
2023/02/04 11:19:02;;;;;;;1.00;0.90;;;5.00;97.30;;;;;;5013034;28;20519;-88
2023/02/04 11:21:42;;;;;;;1.47;1.47;;;5.10;97.30;;;;;;5017232;28;20453;-87
2023/02/04 11:24:11;;;;;;;0.90;0.80;;;5.10;97.30;;;;;;5017617;28;20439;-87
2023/02/04 11:26:40;;;;;;;5.73;1.67;;;5.10;97.30;;;;;;5036008;28;20933;-86
2023/02/04 11:29:06;;;;;;;1.13;1.03;;;5.00;97.30;;;;;;5017005;28;20462;-88
2023/02/04 11:31:32;;;;;;;1.10;1.00;;;5.00;97.30;;;;;;5017893;28;20428;-88
2023/02/04 11:34:12;;;;;;;2.40;1.20;;;4.90;97.30;;;;;;5017915;28;20423;-88
2023/02/04 11:37:00;;;;;;;0.97;0.87;;;4.90;97.30;;;;;;5014748;28;20199;-88
2023/02/04 11:39:44;;;;;;;1.00;0.90;;;4.90;97.30;;;;;;5018038;28;20593;-87
2023/02/04 11:42:32;;;;;;;1.10;1.00;;;4.90;97.30;;;;;;5011774;28;20532;-88
2023/02/04 11:45:12;;;;;;;1.13;1.03;;;4.90;97.30;;;;;;5018164;28;20435;-88
2023/02/04 11:47:38;;;;;;;1.20;1.10;;;4.90;97.30;;;;;;5016495;28;21000;-87
2023/02/04 11:50:13;;;;;;;1.10;1.00;;;4.90;97.30;;;;;;5015569;28;20485;-88
2023/02/04 11:52:39;;;;;;;1.10;1.00;;;4.90;97.30;;;;;;5033500;28;20279;-88
2023/02/04 11:55:07;;;;;;;0.80;0.70;;;4.90;97.30;;;;;;5015877;28;20505;-88
2023/02/04 11:57:41;;;;;;;1.20;1.10;;;4.90;97.30;;;;;;5012604;28;20639;-86
2023/02/04 12:00:21;;;;;;;1.10;1.00;;;4.90;97.30;;;;;;5009376;28;20501;-88
2023/02/04 12:02:53;;;;;;;1.20;1.10;;;4.90;97.30;;;;;;5010796;28;20447;-87
2023/02/04 12:05:19;;;;;;;1.10;1.03;;;4.90;97.30;;;;;;5012677;28;20965;-87
2023/02/04 12:07:46;;;;;;;0.90;0.80;;;4.90;97.30;;;;;;5012364;28;20461;-88
2023/02/04 12:10:11;;;;;;;1.03;1.00;;;4.90;97.30;;;;;;5012606;28;20434;-87
2023/02/04 12:12:43;;;;;;;5.33;1.13;;;4.80;97.30;;;;;;5013180;28;20411;-87
2023/02/04 12:15:22;;;;;;;1.03;0.93;;;4.70;97.30;;;;;;5022907;28;20193;-86
2023/02/04 12:18:00;;;;;;;1.00;0.90;;;4.60;97.30;;;;;;5021275;28;20477;-87
2023/02/04 12:20:25;;;;;;;1.87;1.57;;;4.50;97.30;;;;;;5011306;28;20419;-88
2023/02/04 12:26:48;;;;;;;1.07;0.97;;;4.60;97.30;;;;;;4987552;28;20541;-87
2023/02/04 12:29:37;;;;;;;1.10;1.00;;;4.90;97.30;;;;;;4975077;28;20543;-87
2023/02/04 12:32:08;;;;;;;1.27;1.17;;;5.00;97.30;;;;;;4964995;28;20414;-86
2023/02/04 12:35:08;;;;;;;1.10;1.00;;;5.00;97.30;;;;;;4981467;28;20432;-87
2023/02/04 12:38:09;;;;;;;5.37;1.83;;;5.10;97.30;;;;;;4982813;28;20429;-87
2023/02/04 12:40:37;;;;;;;1.00;0.90;;;5.10;97.30;;;;;;4973325;28;20457;-88
2023/02/04 12:43:09;;;;;;;1.10;1.00;;;5.10;97.30;;;;;;4977173;28;20426;-88
2023/02/04 12:45:38;;;;;;;1.30;1.17;;;5.10;97.30;;;;;;4988855;28;20433;-87
2023/02/04 12:48:16;;;;;;;1.00;0.90;;;5.10;97.30;;;;;;5014201;28;20483;-88
2023/02/04 12:50:47;;;;;;;1.43;1.33;;;5.20;97.30;;;;;;5005756;28;20803;-88
2023/02/04 12:53:18;;;;;;;1.00;0.90;;;5.60;97.30;;;;;;5013455;28;20444;-88
2023/02/04 12:56:19;;;;;;;1.00;0.90;;;6.00;97.10;;;;;;5001605;28;20466;-88
2023/02/04 12:58:48;;;;;;;4.20;1.20;;;6.20;95.50;;;;;;5008498;28;20429;-88
2023/02/04 13:01:37;;;;;;;1.10;1.10;;;6.10;95.10;;;;;;5007220;28;20499;-89
2023/02/04 13:04:08;;;;;;;1.17;1.07;;;6.00;95.10;;;;;;5000195;28;20424;-88
2023/02/04 13:06:36;;;;;;;1.10;1.00;;;5.70;95.60;;;;;;5007179;28;20466;-88
2023/02/04 13:09:02;;;;;;;0.90;0.80;;;5.60;95.60;;;;;;5005083;28;20996;-89